createdAt,value
2023-05-21T00:00:23.653Z,76.98
2023-05-21T00:02:51.586Z,76.64
2023-05-21T00:05:18.933Z,77.14
2023-05-21T00:07:47.268Z,77.29
2023-05-21T00:10:14.258Z,77.90
2023-05-21T00:12:42.040Z,84.41
2023-05-21T00:15:09.626Z,86.83
2023-05-21T00:17:37.124Z,89.90
2023-05-21T00:20:08.938Z,90.42
2023-05-21T00:22:36.458Z,89.77
2023-05-21T00:25:04.265Z,89.87
2023-05-21T00:27:30.976Z,91.01
2023-05-21T00:29:57.857Z,91.12
2023-05-21T00:32:24.602Z,91.57
2023-05-21T00:34:51.336Z,92.34
2023-05-21T00:37:18.034Z,92.62
2023-05-21T00:39:44.695Z,94.07
2023-05-21T00:42:12.363Z,92.74
2023-05-21T00:44:39.383Z,94.35
2023-05-21T00:47:06.710Z,95.17
2023-05-21T00:49:33.248Z,93.72
2023-05-21T00:52:01.748Z,94.00
2023-05-21T00:54:29.468Z,94.44
2023-05-21T00:56:57.072Z,94.24
2023-05-21T00:59:24.249Z,94.90
2023-05-21T01:01:56.094Z,97.76
2023-05-21T01:04:24.144Z,100.00
2023-05-21T01:06:53.526Z,96.76
2023-05-21T01:09:20.553Z,94.63
2023-05-21T01:11:51.066Z,95.18
2023-05-21T01:14:19.831Z,93.02
2023-05-21T01:16:49.711Z,91.92
2023-05-21T01:19:19.704Z,91.01
2023-05-21T01:21:50.945Z,90.61
2023-05-21T01:24:17.680Z,89.06
2023-05-21T01:26:46.635Z,88.97
2023-05-21T01:29:14.525Z,89.65
2023-05-21T01:31:59.595Z,88.83
2023-05-21T01:34:37.891Z,88.74
2023-05-21T01:37:51.246Z,89.29
2023-05-21T01:40:38.449Z,88.42
2023-05-21T01:43:06.505Z,88.07
2023-05-21T01:45:34.663Z,88.68
2023-05-21T01:48:02.707Z,89.01
2023-05-21T01:50:29.807Z,88.11
2023-05-21T01:53:01.267Z,87.91
2023-05-21T01:55:28.292Z,89.13
2023-05-21T01:57:56.026Z,90.64
2023-05-21T02:00:24.663Z,93.37
2023-05-21T02:02:52.032Z,94.27
2023-05-21T02:05:18.632Z,93.81
2023-05-21T02:07:46.261Z,94.39
2023-05-21T02:10:13.300Z,94.19
2023-05-21T02:12:40.004Z,94.29
2023-05-21T02:15:07.349Z,95.10
2023-05-21T02:17:34.329Z,98.11
2023-05-21T02:20:11.215Z,99.52
2023-05-21T02:22:39.980Z,100.00
2023-05-21T02:25:08.214Z,100.00
2023-05-21T02:27:38.855Z,100.00
2023-05-21T02:30:09.303Z,100.00
2023-05-21T02:32:36.327Z,100.00
2023-05-21T02:35:04.372Z,100.00
2023-05-21T02:37:34.935Z,100.00
2023-05-21T02:40:04.338Z,100.00
2023-05-21T02:42:31.141Z,100.00
2023-05-21T02:44:57.840Z,100.00
2023-05-21T02:47:25.601Z,100.00
2023-05-21T02:49:53.230Z,100.00
2023-05-21T02:52:24.071Z,100.00
2023-05-21T02:54:51.709Z,100.00
2023-05-21T02:57:18.464Z,100.00
2023-05-21T02:59:46.002Z,100.00
2023-05-21T03:02:12.853Z,100.00
2023-05-21T03:04:46.454Z,100.00
2023-05-21T03:07:19.207Z,100.00
2023-05-21T03:09:46.556Z,100.00
2023-05-21T03:12:13.623Z,100.00
2023-05-21T03:14:40.341Z,100.00
2023-05-21T03:17:07.131Z,100.00
2023-05-21T03:19:37.446Z,100.00
2023-05-21T03:22:04.729Z,100.00
2023-05-21T03:24:31.942Z,100.00
2023-05-21T03:27:01.154Z,100.00
2023-05-21T03:29:28.698Z,100.00
2023-05-21T03:31:55.805Z,100.00
2023-05-21T03:34:22.657Z,100.00
2023-05-21T03:36:49.540Z,100.00
2023-05-21T03:39:16.450Z,100.00
2023-05-21T03:41:43.361Z,100.00
2023-05-21T03:44:10.202Z,100.00
2023-05-21T03:46:37.260Z,100.00
2023-05-21T03:49:04.113Z,100.00
2023-05-21T03:51:31.917Z,100.00
2023-05-21T03:53:59.552Z,100.00
2023-05-21T03:56:26.522Z,100.00
2023-05-21T03:58:53.308Z,100.00
2023-05-21T04:01:20.444Z,100.00
2023-05-21T04:03:47.245Z,100.00
2023-05-21T04:06:14.519Z,100.00
2023-05-21T04:08:41.178Z,100.00
2023-05-21T04:11:07.841Z,100.00
2023-05-21T04:13:34.562Z,100.00
2023-05-21T04:16:01.351Z,100.00
2023-05-21T04:18:28.354Z,100.00
2023-05-21T04:20:55.092Z,100.00
2023-05-21T04:23:23.614Z,100.00
2023-05-21T04:25:51.009Z,100.00
2023-05-21T04:28:20.523Z,100.00
2023-05-21T04:30:47.875Z,100.00
2023-05-21T04:33:18.335Z,100.00
2023-05-21T04:35:50.219Z,100.00
2023-05-21T04:38:20.052Z,100.00
2023-05-21T04:40:52.357Z,100.00
2023-05-21T04:43:25.622Z,100.00
2023-05-21T04:45:55.859Z,100.00
2023-05-21T04:48:24.906Z,100.00
2023-05-21T04:50:53.673Z,100.00
2023-05-21T04:53:20.810Z,100.00
2023-05-21T04:55:47.573Z,100.00
2023-05-21T04:58:14.760Z,100.00
2023-05-21T05:00:42.295Z,100.00
2023-05-21T05:03:09.200Z,100.00
2023-05-21T05:05:36.283Z,100.00
2023-05-21T05:08:04.134Z,100.00
2023-05-21T05:10:30.807Z,100.00
2023-05-21T05:12:57.467Z,100.00
2023-05-21T05:15:24.277Z,100.00
2023-05-21T05:17:51.078Z,100.00
2023-05-21T05:20:17.985Z,100.00
2023-05-21T05:22:44.887Z,100.00
2023-05-21T05:25:11.620Z,100.00
2023-05-21T05:27:38.731Z,100.00
2023-05-21T05:30:06.090Z,100.00
2023-05-21T05:32:32.915Z,97.06
2023-05-21T05:35:01.538Z,93.84
2023-05-21T05:37:29.024Z,92.93
2023-05-21T05:39:56.035Z,94.19
2023-05-21T05:42:22.856Z,94.55
2023-05-21T05:44:49.558Z,95.67
2023-05-21T05:47:17.377Z,94.23
2023-05-21T05:49:44.106Z,93.40
2023-05-21T05:52:10.868Z,94.83
2023-05-21T05:54:37.785Z,95.36
2023-05-21T05:57:05.078Z,96.02
2023-05-21T05:59:33.853Z,97.14
2023-05-21T06:02:01.465Z,97.09
2023-05-21T06:04:30.238Z,95.76
2023-05-21T06:07:00.612Z,95.21
2023-05-21T06:09:27.340Z,95.98
2023-05-21T06:11:54.105Z,95.64
2023-05-21T06:14:20.919Z,96.77
2023-05-21T06:16:47.565Z,97.39
2023-05-21T06:19:14.341Z,95.69
2023-05-21T06:21:41.071Z,96.37
2023-05-21T06:24:07.825Z,97.18
2023-05-21T06:26:34.553Z,96.64
2023-05-21T06:29:01.228Z,95.64
2023-05-21T06:31:28.075Z,95.70
2023-05-21T06:33:54.899Z,94.13
2023-05-21T06:36:22.166Z,93.38
2023-05-21T06:38:48.858Z,92.92
2023-05-21T06:41:15.595Z,91.82
2023-05-21T06:43:42.312Z,93.27
2023-05-21T06:46:09.080Z,91.20
2023-05-21T06:48:36.150Z,90.04
2023-05-21T06:51:02.835Z,89.76
2023-05-21T06:53:29.618Z,87.68
2023-05-21T06:55:56.393Z,86.63
2023-05-21T06:58:23.235Z,87.22
2023-05-21T07:00:50.026Z,82.27
2023-05-21T07:05:44.342Z,71.84
2023-05-21T07:08:12.192Z,66.63
2023-05-21T07:10:39.113Z,70.11
2023-05-21T07:13:06.053Z,65.84
2023-05-21T07:15:32.718Z,65.64
2023-05-21T07:17:59.684Z,58.23
2023-05-21T07:20:26.552Z,58.56
2023-05-21T07:22:53.269Z,53.42
2023-05-21T07:25:20.232Z,53.54
2023-05-21T07:27:46.975Z,53.90
2023-05-21T07:30:15.087Z,52.93
2023-05-21T07:32:42.268Z,51.39
2023-05-21T07:35:09.010Z,52.53
2023-05-21T07:37:35.729Z,53.34
2023-05-21T07:40:02.516Z,51.66
2023-05-21T07:42:29.214Z,51.96
2023-05-21T07:44:55.940Z,53.44
2023-05-21T07:47:23.798Z,51.17
2023-05-21T07:49:50.516Z,50.11
2023-05-21T07:52:17.424Z,51.11
2023-05-21T07:54:44.132Z,49.86
2023-05-21T07:57:10.986Z,51.56
2023-05-21T07:59:37.638Z,52.21
2023-05-21T08:02:04.487Z,52.86
2023-05-21T08:04:31.660Z,54.60
2023-05-21T08:06:58.278Z,57.32
2023-05-21T08:09:24.887Z,57.74
2023-05-21T08:11:51.606Z,57.07
2023-05-21T08:14:18.259Z,58.29
2023-05-21T08:16:45.529Z,53.15
2023-05-21T08:19:12.255Z,55.01
2023-05-21T08:21:38.936Z,53.82
2023-05-21T08:24:06.093Z,56.63
2023-05-21T08:26:32.623Z,57.84
2023-05-21T08:28:59.585Z,55.32
2023-05-21T08:31:26.389Z,51.68
2023-05-21T08:33:54.338Z,53.55
2023-05-21T08:36:21.477Z,47.79
2023-05-21T08:38:48.330Z,47.52
2023-05-21T08:41:16.717Z,48.81
2023-05-21T08:43:48.011Z,47.93
2023-05-21T08:46:18.936Z,46.09
2023-05-21T08:48:47.383Z,49.25
2023-05-21T08:51:14.168Z,47.15
2023-05-21T08:53:42.472Z,52.19
2023-05-21T08:56:09.876Z,51.64
2023-05-21T08:58:37.426Z,47.86
2023-05-21T09:01:04.934Z,51.44
2023-05-21T09:03:33.084Z,52.37
2023-05-21T09:06:00.902Z,50.08
2023-05-21T09:08:32.072Z,44.04
2023-05-21T09:10:58.733Z,45.68
2023-05-21T09:13:26.988Z,47.02
2023-05-21T09:15:53.751Z,49.30
2023-05-21T09:18:20.489Z,48.91
2023-05-21T09:20:47.479Z,47.14
2023-05-21T09:23:17.889Z,46.06
2023-05-21T09:25:48.871Z,45.47
2023-05-21T09:28:17.052Z,47.63
2023-05-21T09:30:47.561Z,41.62
2023-05-21T09:33:31.622Z,43.06
2023-05-21T09:35:58.482Z,45.34
2023-05-21T09:38:26.167Z,43.63
2023-05-21T09:40:56.955Z,46.49
2023-05-21T09:43:23.708Z,42.04
2023-05-21T09:45:54.858Z,41.60
2023-05-21T09:48:33.953Z,41.65
2023-05-21T09:51:17.756Z,41.35
2023-05-21T09:53:47.476Z,41.27
2023-05-21T09:56:14.143Z,43.19
2023-05-21T09:58:41.101Z,40.36
2023-05-21T10:01:08.685Z,42.36
2023-05-21T10:03:39.975Z,42.42
2023-05-21T10:06:09.472Z,44.47
2023-05-21T10:08:43.108Z,41.60
2023-05-21T10:11:11.599Z,42.31
2023-05-21T10:13:43.451Z,42.50
2023-05-21T10:16:10.748Z,42.71
2023-05-21T10:18:39.325Z,43.19
2023-05-21T10:21:07.479Z,43.57
2023-05-21T10:23:36.651Z,41.11
2023-05-21T10:26:05.643Z,40.84
2023-05-21T10:28:33.918Z,41.46
2023-05-21T10:31:01.542Z,40.35
2023-05-21T10:33:29.515Z,40.91
2023-05-21T10:35:59.504Z,41.85
2023-05-21T10:38:27.873Z,41.34
2023-05-21T10:40:55.972Z,41.39
2023-05-21T10:43:41.484Z,40.98
2023-05-21T10:46:31.449Z,42.29
2023-05-21T10:49:07.051Z,42.49
2023-05-21T10:51:36.603Z,43.59
2023-05-21T10:54:03.169Z,46.82
2023-05-21T10:56:54.868Z,44.20
2023-05-21T10:59:58.402Z,45.99
2023-05-21T11:02:27.559Z,43.05
2023-05-21T11:05:01.809Z,43.48
2023-05-21T11:07:52.945Z,44.26
2023-05-21T11:10:32.959Z,44.35
2023-05-21T11:13:16.724Z,43.39
2023-05-21T11:16:16.926Z,44.20
2023-05-21T11:18:46.601Z,43.71
2023-05-21T11:21:18.723Z,43.52
2023-05-21T11:23:49.600Z,43.22
2023-05-21T11:26:24.602Z,43.94
2023-05-21T11:29:06.775Z,43.18
2023-05-21T11:31:38.611Z,43.41
2023-05-21T11:34:30.185Z,43.25
2023-05-21T11:37:18.548Z,44.20
2023-05-21T11:39:45.872Z,44.23
2023-05-21T11:42:12.584Z,45.29
2023-05-21T11:44:40.242Z,44.50
2023-05-21T11:47:08.727Z,44.51
2023-05-21T11:49:36.100Z,44.63
2023-05-21T11:52:06.101Z,44.84
2023-05-21T11:54:37.602Z,45.36
2023-05-21T11:57:08.298Z,46.23
2023-05-21T11:59:36.388Z,46.00
2023-05-21T12:02:04.895Z,46.01
2023-05-21T12:04:32.869Z,45.98
2023-05-21T12:06:59.638Z,48.43
2023-05-21T12:09:26.442Z,46.75
2023-05-21T12:11:53.556Z,46.73
2023-05-21T12:14:21.737Z,48.09
2023-05-21T12:16:48.478Z,46.81
2023-05-21T12:19:19.081Z,47.76
2023-05-21T12:21:46.006Z,48.99
2023-05-21T12:24:12.927Z,49.17
2023-05-21T12:26:42.056Z,48.57
2023-05-21T12:29:08.909Z,48.26
2023-05-21T12:31:48.417Z,49.50
2023-05-21T12:34:18.752Z,50.50
2023-05-21T12:36:52.052Z,48.75
2023-05-21T12:39:20.056Z,48.09
2023-05-21T12:41:46.977Z,48.84
2023-05-21T12:44:13.646Z,49.98
2023-05-21T12:46:41.650Z,50.55
2023-05-21T12:49:08.950Z,49.33
2023-05-21T12:51:39.998Z,47.90
2023-05-21T12:54:13.142Z,49.61
2023-05-21T12:56:46.544Z,48.27
2023-05-21T12:59:14.757Z,48.79
2023-05-21T13:01:41.557Z,50.09
2023-05-21T13:04:08.515Z,50.23
2023-05-21T13:06:44.444Z,50.04
2023-05-21T13:09:11.463Z,51.22
2023-05-21T13:11:38.050Z,49.47
2023-05-21T13:14:04.732Z,50.25
2023-05-21T13:16:31.604Z,49.62
2023-05-21T13:18:58.330Z,51.59
2023-05-21T13:21:25.059Z,50.06
2023-05-21T13:23:51.695Z,49.37
2023-05-21T13:26:18.386Z,48.83
2023-05-21T13:28:45.365Z,49.40
2023-05-21T13:31:12.312Z,48.72
2023-05-21T13:33:39.033Z,48.65
2023-05-21T13:36:05.970Z,46.58
2023-05-21T13:38:32.617Z,47.70
2023-05-21T13:40:59.343Z,46.71
2023-05-21T13:43:26.197Z,47.40
2023-05-21T13:45:53.080Z,47.18
2023-05-21T13:48:19.813Z,45.63
2023-05-21T13:50:46.562Z,45.83
2023-05-21T13:53:13.179Z,46.79
2023-05-21T13:55:39.805Z,45.75
2023-05-21T13:58:06.528Z,45.15
2023-05-21T14:00:33.161Z,45.27
2023-05-21T14:03:00.421Z,46.01
2023-05-21T14:05:27.055Z,44.63
2023-05-21T14:07:53.720Z,45.19
2023-05-21T14:10:20.733Z,45.17
2023-05-21T14:12:47.395Z,44.70
2023-05-21T14:15:14.203Z,45.39
2023-05-21T14:17:42.377Z,44.35
2023-05-21T14:20:10.082Z,43.26
2023-05-21T14:22:37.786Z,44.25
2023-05-21T14:25:04.684Z,45.46
2023-05-21T14:27:31.339Z,44.62
2023-05-21T14:29:58.023Z,44.89
2023-05-21T14:32:24.855Z,46.64
2023-05-21T14:34:51.552Z,44.67
2023-05-21T14:37:18.304Z,45.52
2023-05-21T14:39:45.009Z,44.68
2023-05-21T14:42:11.780Z,44.91
2023-05-21T14:44:38.586Z,46.37
2023-05-21T14:47:05.234Z,46.98
2023-05-21T14:49:34.575Z,45.76
2023-05-21T14:52:01.285Z,45.19
2023-05-21T14:54:27.960Z,45.16
2023-05-21T14:56:55.343Z,45.17
2023-05-21T14:59:21.911Z,47.02
2023-05-21T15:01:48.793Z,45.99
2023-05-21T15:04:15.646Z,45.94
2023-05-21T15:06:42.393Z,45.63
2023-05-21T15:09:09.136Z,46.40
2023-05-21T15:11:36.068Z,47.00
2023-05-21T15:14:02.746Z,45.94
2023-05-21T15:16:29.544Z,48.30
2023-05-21T15:18:56.783Z,47.27
2023-05-21T15:21:24.871Z,47.40
2023-05-21T15:23:53.305Z,46.39
2023-05-21T15:26:20.045Z,47.76
2023-05-21T15:28:46.720Z,46.82
2023-05-21T15:31:13.405Z,46.83
2023-05-21T15:33:40.137Z,46.79
2023-05-21T15:36:07.208Z,47.29
2023-05-21T15:38:33.949Z,47.50
2023-05-21T15:41:00.765Z,47.10
2023-05-21T15:43:27.455Z,48.02
2023-05-21T15:45:54.247Z,48.30
2023-05-21T15:48:22.823Z,47.76
2023-05-21T15:50:50.082Z,47.07
2023-05-21T15:53:16.641Z,49.07
2023-05-21T15:55:43.373Z,48.55
2023-05-21T15:58:10.039Z,48.37
2023-05-21T16:00:36.818Z,49.21
2023-05-21T16:03:03.946Z,48.04
2023-05-21T16:05:30.756Z,48.30
2023-05-21T16:07:57.410Z,49.05
2023-05-21T16:10:24.856Z,50.18
2023-05-21T16:12:51.585Z,49.63
2023-05-21T16:15:18.231Z,49.46
2023-05-21T16:17:45.013Z,49.52
2023-05-21T16:20:12.395Z,50.04
2023-05-21T16:22:40.425Z,49.40
2023-05-21T16:25:07.717Z,49.81
2023-05-21T16:27:35.639Z,50.38
2023-05-21T16:30:02.534Z,48.88
2023-05-21T16:32:29.256Z,50.00
2023-05-21T16:34:56.008Z,50.37
2023-05-21T16:37:22.741Z,50.57
2023-05-21T16:39:49.428Z,49.76
2023-05-21T16:42:16.132Z,50.74
2023-05-21T16:44:42.808Z,50.17
2023-05-21T16:47:09.446Z,50.28
2023-05-21T16:49:36.170Z,49.87
2023-05-21T16:52:03.448Z,49.76
2023-05-21T16:54:30.005Z,49.85
2023-05-21T16:56:56.722Z,49.47
2023-05-21T16:59:23.445Z,49.42
2023-05-21T17:01:50.170Z,49.68
2023-05-21T17:04:16.938Z,50.52
2023-05-21T17:06:43.677Z,51.11
2023-05-21T17:09:10.336Z,52.09
2023-05-21T17:11:37.035Z,52.58
2023-05-21T17:14:03.916Z,51.08
2023-05-21T17:16:30.809Z,51.19
2023-05-21T17:18:57.559Z,51.27
2023-05-21T17:21:26.101Z,52.47
2023-05-21T17:23:52.939Z,55.06
2023-05-21T17:26:19.630Z,53.88
2023-05-21T17:28:46.511Z,56.08
2023-05-21T17:31:14.111Z,58.34
2023-05-21T17:33:40.828Z,57.66
2023-05-21T17:36:07.557Z,57.85
2023-05-21T17:38:34.151Z,59.32
2023-05-21T17:41:00.979Z,59.37
2023-05-21T17:43:27.919Z,60.10
2023-05-21T17:45:54.724Z,63.79
2023-05-21T17:48:21.577Z,62.42
2023-05-21T17:50:48.423Z,61.81
2023-05-21T17:53:15.338Z,61.20
2023-05-21T17:55:42.053Z,61.35
2023-05-21T17:58:09.991Z,64.73
2023-05-21T18:00:36.860Z,66.88
2023-05-21T18:03:04.377Z,66.49
2023-05-21T18:05:31.152Z,66.00
2023-05-21T18:07:59.119Z,69.27
2023-05-21T18:10:25.840Z,72.75
2023-05-21T18:12:52.554Z,74.35
2023-05-21T18:15:19.251Z,76.09
2023-05-21T18:17:47.845Z,77.53
2023-05-21T18:20:14.964Z,78.24
2023-05-21T18:22:41.671Z,78.51
2023-05-21T18:25:09.058Z,77.54
2023-05-21T18:27:36.004Z,75.84
2023-05-21T18:30:05.426Z,75.73
2023-05-21T18:32:33.976Z,76.24
2023-05-21T18:35:00.752Z,76.72
2023-05-21T18:37:27.370Z,77.78
2023-05-21T18:39:54.127Z,76.47
2023-05-21T18:42:20.879Z,76.26
2023-05-21T18:44:50.644Z,75.48
2023-05-21T18:47:17.383Z,76.95
2023-05-21T18:49:44.107Z,76.68
2023-05-21T18:52:10.846Z,76.74
2023-05-21T18:54:37.527Z,76.01
2023-05-21T18:57:04.369Z,75.96
2023-05-21T18:59:31.495Z,75.30
2023-05-21T19:01:58.172Z,76.97
2023-05-21T19:04:24.894Z,82.76
2023-05-21T19:06:51.609Z,84.59
2023-05-21T19:09:18.255Z,82.09
2023-05-21T19:11:44.937Z,80.45
2023-05-21T19:14:12.114Z,81.70
2023-05-21T19:16:38.843Z,82.13
2023-05-21T19:19:06.200Z,82.91
2023-05-21T19:21:32.829Z,82.75
2023-05-21T19:23:59.596Z,81.50
2023-05-21T19:26:26.293Z,81.02
2023-05-21T19:28:54.538Z,79.68
2023-05-21T19:31:23.099Z,83.93
2023-05-21T19:33:50.003Z,84.64
2023-05-21T19:36:17.001Z,83.45
2023-05-21T19:38:51.079Z,81.67
2023-05-21T19:41:18.734Z,84.06
2023-05-21T19:43:46.016Z,82.68
2023-05-21T19:46:13.182Z,81.77
2023-05-21T19:48:39.985Z,83.91
2023-05-21T19:51:06.664Z,84.72
2023-05-21T19:53:33.352Z,85.27
2023-05-21T19:56:00.131Z,85.39
2023-05-21T19:58:29.610Z,85.66
2023-05-21T20:00:58.446Z,84.66
2023-05-21T20:03:26.730Z,84.18
2023-05-21T20:05:53.716Z,84.72
2023-05-21T20:08:20.821Z,85.56
2023-05-21T20:10:49.596Z,85.45
2023-05-21T20:13:18.247Z,86.24
2023-05-21T20:15:44.925Z,86.96
2023-05-21T20:18:13.002Z,87.23
2023-05-21T20:20:41.521Z,89.87
2023-05-21T20:23:08.642Z,89.14
2023-05-21T20:25:35.303Z,89.30
2023-05-21T20:28:03.691Z,89.13
2023-05-21T20:30:34.825Z,88.35
2023-05-21T20:33:03.141Z,86.49
2023-05-21T20:35:30.706Z,87.58
2023-05-21T20:37:57.510Z,89.26
2023-05-21T20:40:24.288Z,89.44
2023-05-21T20:42:53.161Z,89.61
2023-05-21T20:45:21.135Z,89.91
2023-05-21T20:47:48.124Z,90.79
2023-05-21T20:50:17.524Z,90.69
2023-05-21T20:52:47.039Z,90.14
2023-05-21T20:55:14.741Z,90.08
2023-05-21T20:57:41.645Z,90.83
2023-05-21T21:00:10.671Z,89.84
2023-05-21T21:02:38.829Z,89.17
2023-05-21T21:05:06.154Z,91.32
2023-05-21T21:07:34.409Z,89.02
2023-05-21T21:10:01.517Z,92.00
2023-05-21T21:12:28.558Z,92.08
2023-05-21T21:14:55.756Z,90.65
2023-05-21T21:17:23.190Z,91.18
2023-05-21T21:19:50.051Z,94.50
2023-05-21T21:22:18.307Z,92.63
2023-05-21T21:24:45.702Z,94.92
2023-05-21T21:27:12.427Z,94.32
2023-05-21T21:29:39.138Z,95.12
2023-05-21T21:32:06.293Z,93.73
2023-05-21T21:34:32.915Z,93.41
2023-05-21T21:36:59.535Z,92.20
2023-05-21T21:39:26.860Z,92.42
2023-05-21T21:41:53.450Z,92.22
2023-05-21T21:44:20.110Z,92.05
2023-05-21T21:46:47.256Z,92.24
2023-05-21T21:49:15.717Z,91.55
2023-05-21T21:51:44.535Z,91.68
2023-05-21T21:54:11.757Z,91.19
2023-05-21T21:56:38.483Z,90.69
2023-05-21T21:59:05.188Z,90.58
2023-05-21T22:01:32.054Z,91.82
2023-05-21T22:03:59.249Z,94.63
2023-05-21T22:06:27.677Z,95.81
2023-05-21T22:08:55.014Z,96.21
2023-05-21T22:11:22.070Z,96.38
2023-05-21T22:13:48.972Z,97.09
2023-05-21T22:16:15.864Z,97.34
2023-05-21T22:18:42.546Z,97.54
2023-05-21T22:21:10.642Z,98.47
2023-05-21T22:23:38.280Z,97.33
2023-05-21T22:26:05.014Z,96.96
2023-05-21T22:28:31.761Z,97.75
2023-05-21T22:30:59.040Z,97.33
2023-05-21T22:33:26.671Z,96.97
2023-05-21T22:35:54.366Z,96.02
2023-05-21T22:38:21.537Z,95.48
2023-05-21T22:40:48.438Z,95.92
2023-05-21T22:43:15.365Z,94.63
2023-05-21T22:45:42.322Z,93.87
2023-05-21T22:48:09.623Z,93.55
2023-05-21T22:50:38.634Z,96.86
2023-05-21T22:53:06.520Z,98.15
2023-05-21T22:55:33.268Z,99.35
2023-05-21T22:57:59.934Z,99.21
2023-05-21T23:00:26.909Z,100.00
2023-05-21T23:02:54.731Z,100.00
2023-05-21T23:05:22.179Z,99.87
2023-05-21T23:07:49.019Z,99.90
2023-05-21T23:10:15.977Z,99.07
2023-05-21T23:12:43.078Z,98.83
2023-05-21T23:15:10.869Z,99.44
2023-05-21T23:17:38.016Z,98.66
2023-05-21T23:20:07.478Z,98.56
2023-05-21T23:22:34.792Z,99.17
2023-05-21T23:25:01.507Z,99.47
2023-05-21T23:27:28.275Z,100.00
2023-05-21T23:29:54.920Z,100.00
2023-05-21T23:32:21.679Z,100.00
2023-05-21T23:34:48.358Z,100.00
2023-05-21T23:37:15.113Z,100.00
2023-05-21T23:39:41.869Z,100.00
2023-05-21T23:42:08.468Z,100.00
2023-05-21T23:44:35.129Z,100.00
2023-05-21T23:47:01.887Z,100.00
2023-05-21T23:49:28.548Z,100.00
2023-05-21T23:51:55.629Z,100.00
2023-05-21T23:54:22.501Z,100.00
2023-05-21T23:56:49.282Z,100.00
2023-05-21T23:59:18.375Z,100.00
